Time;durP1;ratioP1;P1;durP2;ratioP2;P2;SDS_P1;SDS_P2;PMS_P1;PMS_P2;Temp;Humidity;BMP_temperature;BMP_pressure;BME280_temperature;BME280_humidity;BME280_pressure;Samples;Min_cycle;Max_cycle;Signal;HPM_P1;HPM_P2
2021/01/31 00:02:14;;;;;;;6.55;5.75;;;4.40;99.90;;;;;;5059293;28;20200;-83
2021/01/31 00:04:45;;;;;;;7.70;6.82;;;4.50;99.90;;;;;;5051150;28;20214;-83
2021/01/31 00:07:13;;;;;;;8.15;6.82;;;4.60;99.90;;;;;;5048985;28;20206;-82
2021/01/31 00:09:39;;;;;;;7.10;6.50;;;4.60;99.90;;;;;;5051810;28;20204;-81
2021/01/31 00:12:06;;;;;;;5.70;5.20;;;4.50;99.90;;;;;;5054560;28;20208;-82
2021/01/31 00:14:33;;;;;;;7.47;6.70;;;4.40;99.90;;;;;;5051729;28;20231;-81
2021/01/31 00:16:59;;;;;;;13.77;7.13;;;4.40;99.90;;;;;;5057655;28;20211;-83
2021/01/31 00:19:26;;;;;;;7.85;6.55;;;4.40;99.90;;;;;;5058538;28;20606;-83
2021/01/31 00:21:57;;;;;;;7.50;6.43;;;4.30;99.90;;;;;;5073075;28;20211;-82
2021/01/31 00:24:24;;;;;;;8.05;6.72;;;4.30;99.90;;;;;;5070137;28;20217;-81
2021/01/31 00:26:51;;;;;;;6.78;5.75;;;4.20;99.90;;;;;;5072476;28;20702;-81
2021/01/31 00:29:18;;;;;;;8.15;7.25;;;4.30;99.90;;;;;;5065554;28;20199;-82
2021/01/31 00:31:46;;;;;;;8.68;7.82;;;4.40;99.90;;;;;;5071548;28;20213;-83
2021/01/31 00:34:13;;;;;;;8.73;7.35;;;4.40;99.90;;;;;;5072090;28;20744;-82
2021/01/31 00:36:39;;;;;;;8.57;7.13;;;4.30;99.90;;;;;;5065772;28;20203;-82
2021/01/31 00:39:07;;;;;;;8.30;7.20;;;4.30;99.90;;;;;;5054764;28;20204;-82
2021/01/31 00:41:35;;;;;;;7.70;6.85;;;4.30;99.90;;;;;;5065079;28;20598;-82
2021/01/31 00:44:03;;;;;;;7.90;7.07;;;4.40;99.90;;;;;;5069806;28;20653;-82
2021/01/31 00:46:33;;;;;;;8.02;6.70;;;4.30;99.90;;;;;;5067371;28;20255;-82
2021/01/31 00:48:59;;;;;;;7.65;6.95;;;4.40;99.90;;;;;;5066890;28;20208;-82
2021/01/31 00:51:25;;;;;;;8.43;7.22;;;4.50;99.90;;;;;;5055224;28;20238;-82
2021/01/31 00:53:52;;;;;;;8.23;7.32;;;4.60;99.90;;;;;;5054068;28;20203;-82
2021/01/31 00:56:18;;;;;;;8.02;7.22;;;4.60;99.90;;;;;;5054904;28;20192;-82
2021/01/31 00:58:46;;;;;;;10.95;7.90;;;4.50;99.90;;;;;;5054459;28;20223;-83
2021/01/31 01:01:13;;;;;;;10.88;7.63;;;4.50;99.90;;;;;;5066624;28;20199;-82
2021/01/31 01:03:39;;;;;;;7.93;7.13;;;4.50;99.90;;;;;;5070768;28;20192;-83
2021/01/31 01:06:06;;;;;;;7.25;6.43;;;4.40;99.90;;;;;;5064226;28;20260;-82
2021/01/31 01:08:32;;;;;;;9.63;7.97;;;4.40;99.90;;;;;;5067539;28;20195;-83
2021/01/31 01:10:59;;;;;;;7.60;6.28;;;4.50;99.90;;;;;;5054926;28;20208;-82
2021/01/31 01:13:26;;;;;;;7.43;6.35;;;4.50;99.90;;;;;;5056288;28;20246;-82
2021/01/31 01:15:54;;;;;;;8.70;6.95;;;4.60;99.90;;;;;;5069409;28;20288;-82
2021/01/31 01:18:20;;;;;;;8.50;7.63;;;4.60;99.90;;;;;;5054200;28;20223;-82
2021/01/31 01:20:47;;;;;;;8.80;6.85;;;4.60;99.90;;;;;;5062066;28;20281;-83
2021/01/31 01:23:14;;;;;;;8.27;7.35;;;4.60;99.90;;;;;;5065407;28;20222;-82
2021/01/31 01:25:40;;;;;;;7.10;6.40;;;4.60;99.90;;;;;;5055644;28;20247;-83
2021/01/31 01:28:06;;;;;;;8.27;7.47;;;4.60;99.90;;;;;;5072303;28;20243;-83
2021/01/31 01:30:33;;;;;;;11.45;7.53;;;4.70;99.90;;;;;;5071771;28;20210;-82
2021/01/31 01:33:01;;;;;;;10.23;7.82;;;4.80;99.90;;;;;;5070434;28;20227;-81
2021/01/31 01:35:28;;;;;;;10.13;8.13;;;4.70;99.90;;;;;;5054464;28;20220;-82
2021/01/31 01:37:55;;;;;;;9.25;7.13;;;4.60;99.90;;;;;;5053053;28;20251;-82
2021/01/31 01:40:23;;;;;;;7.82;7.03;;;4.70;99.90;;;;;;5053541;28;20199;-83
2021/01/31 01:42:50;;;;;;;8.68;7.13;;;4.70;99.90;;;;;;5072695;28;20277;-83
2021/01/31 01:45:18;;;;;;;8.88;7.55;;;4.70;99.90;;;;;;5066886;28;20661;-82
2021/01/31 01:47:45;;;;;;;8.93;7.13;;;4.80;99.90;;;;;;5072487;28;20582;-81
2021/01/31 01:50:23;;;;;;;7.47;6.53;;;4.70;99.90;;;;;;5071356;28;20227;-81
2021/01/31 01:52:52;;;;;;;8.80;6.90;;;4.60;99.90;;;;;;5052906;28;20204;-83
2021/01/31 01:55:21;;;;;;;9.35;6.80;;;4.60;99.90;;;;;;5060057;28;20661;-82
2021/01/31 01:57:50;;;;;;;9.63;7.80;;;4.70;99.90;;;;;;5054284;28;20216;-83
2021/01/31 02:00:18;;;;;;;9.88;7.80;;;4.70;99.90;;;;;;5052986;28;20239;-82
2021/01/31 02:02:55;;;;;;;9.50;7.88;;;4.60;99.90;;;;;;5060067;28;20200;-82
2021/01/31 02:05:24;;;;;;;8.70;7.90;;;4.60;99.90;;;;;;5053625;28;20224;-82
2021/01/31 02:07:52;;;;;;;8.32;7.15;;;4.60;99.90;;;;;;5056518;28;20192;-83
2021/01/31 02:10:24;;;;;;;8.40;7.05;;;4.60;99.90;;;;;;5062261;28;20642;-82
2021/01/31 02:12:57;;;;;;;8.20;6.80;;;4.60;99.90;;;;;;5055580;28;20378;-82
2021/01/31 02:15:27;;;;;;;8.80;7.95;;;4.70;99.90;;;;;;5060947;28;20192;-82
2021/01/31 02:18:20;;;;;;;9.25;6.80;;;4.70;99.90;;;;;;5052409;28;20703;-81
2021/01/31 02:21:06;;;;;;;9.63;8.35;;;4.70;99.90;;;;;;5058644;28;20766;-81
2021/01/31 02:24:17;;;;;;;12.30;8.85;;;4.70;99.90;;;;;;5061606;28;20199;-82
2021/01/31 02:27:31;;;;;;;9.60;7.65;;;4.70;99.90;;;;;;5061146;28;20633;-82
2021/01/31 02:30:37;;;;;;;11.88;9.52;;;4.50;99.90;;;;;;5065997;28;20217;-81
2021/01/31 02:33:38;;;;;;;10.38;9.05;;;4.30;99.90;;;;;;5067934;28;20211;-82
2021/01/31 02:36:09;;;;;;;12.38;9.82;;;4.30;99.90;;;;;;5052276;28;20245;-82
2021/01/31 02:38:45;;;;;;;12.65;9.60;;;4.30;99.90;;;;;;5065941;28;20314;-81
2021/01/31 02:41:25;;;;;;;10.38;8.60;;;4.40;99.90;;;;;;5061912;28;20200;-81
2021/01/31 02:43:57;;;;;;;10.65;9.45;;;4.40;99.90;;;;;;5053292;28;20595;-82
2021/01/31 02:46:33;;;;;;;10.45;9.20;;;4.40;99.90;;;;;;5064092;28;20202;-83
2021/01/31 02:49:07;;;;;;;14.00;9.75;;;4.30;99.90;;;;;;5052720;28;20657;-81
2021/01/31 02:51:42;;;;;;;12.80;9.75;;;4.30;99.90;;;;;;5063032;28;20199;-83
2021/01/31 02:54:17;;;;;;;13.82;10.80;;;4.30;99.90;;;;;;5051687;28;20249;-81
2021/01/31 02:56:51;;;;;;;13.50;10.38;;;4.30;99.90;;;;;;5059033;28;20207;-82
2021/01/31 02:59:28;;;;;;;13.35;10.07;;;4.20;99.90;;;;;;5057625;28;20258;-82
2021/01/31 03:02:02;;;;;;;11.98;9.70;;;4.10;99.90;;;;;;5067888;28;20195;-82
2021/01/31 03:04:35;;;;;;;13.05;10.45;;;4.00;99.90;;;;;;5071354;28;20555;-82
2021/01/31 03:07:11;;;;;;;12.02;10.10;;;3.90;99.90;;;;;;5049886;28;20199;-80
2021/01/31 03:09:45;;;;;;;14.73;11.20;;;4.00;99.90;;;;;;5053636;28;20208;-82
2021/01/31 03:12:16;;;;;;;13.32;9.57;;;4.00;99.90;;;;;;5054519;28;20207;-82
2021/01/31 03:14:46;;;;;;;13.90;10.85;;;4.00;99.90;;;;;;5052024;28;21264;-82
2021/01/31 03:17:17;;;;;;;12.27;10.45;;;4.00;99.90;;;;;;5050494;28;20227;-82
2021/01/31 03:19:49;;;;;;;12.45;10.57;;;4.00;99.90;;;;;;5051032;28;20200;-82
2021/01/31 03:22:23;;;;;;;10.25;8.30;;;4.00;99.90;;;;;;5064000;28;20192;-81
2021/01/31 03:24:54;;;;;;;12.95;10.15;;;4.00;99.90;;;;;;5062960;28;20299;-82
2021/01/31 03:27:27;;;;;;;12.10;10.35;;;4.00;99.90;;;;;;5070228;28;20195;-82
2021/01/31 03:29:54;;;;;;;13.27;10.48;;;4.00;99.90;;;;;;5057308;28;20246;-82
2021/01/31 03:32:25;;;;;;;13.20;10.70;;;3.90;99.90;;;;;;5066987;28;20199;-82
2021/01/31 03:34:57;;;;;;;12.50;10.57;;;3.80;99.90;;;;;;5051487;28;20265;-81
2021/01/31 03:37:32;;;;;;;14.43;9.88;;;3.80;99.90;;;;;;5070091;28;20211;-82
2021/01/31 03:39:59;;;;;;;10.93;9.65;;;3.80;99.90;;;;;;5058734;28;20203;-81
2021/01/31 03:42:26;;;;;;;13.25;10.73;;;3.90;99.90;;;;;;5050821;28;20203;-82
2021/01/31 03:44:57;;;;;;;10.68;8.98;;;3.90;99.90;;;;;;5061546;28;20253;-82
2021/01/31 03:47:32;;;;;;;12.02;8.23;;;3.90;99.90;;;;;;5064388;28;20192;-82
2021/01/31 03:50:01;;;;;;;11.55;9.45;;;3.90;99.90;;;;;;5054557;28;20199;-83
2021/01/31 03:52:29;;;;;;;16.10;9.63;;;3.90;99.90;;;;;;5070074;28;20195;-82
2021/01/31 03:54:55;;;;;;;10.65;8.93;;;3.80;99.90;;;;;;5061636;28;20208;-81
2021/01/31 03:57:26;;;;;;;13.20;9.07;;;3.90;99.90;;;;;;5070293;28;20219;-82
2021/01/31 03:59:58;;;;;;;15.50;9.98;;;4.00;99.90;;;;;;5068342;28;20207;-82
2021/01/31 04:02:29;;;;;;;14.63;9.90;;;3.90;99.90;;;;;;5054336;28;20204;-83
2021/01/31 04:05:00;;;;;;;12.57;9.10;;;4.00;99.90;;;;;;5065578;28;20200;-81
2021/01/31 04:07:32;;;;;;;11.32;9.55;;;4.10;99.90;;;;;;5050920;28;20601;-82
2021/01/31 04:10:01;;;;;;;11.73;8.88;;;4.10;99.90;;;;;;5063108;28;20292;-82
2021/01/31 04:12:34;;;;;;;11.65;8.40;;;4.10;99.90;;;;;;5052008;28;20208;-82
2021/01/31 04:15:05;;;;;;;12.52;9.98;;;4.10;99.90;;;;;;5051732;28;20199;-83
2021/01/31 04:17:32;;;;;;;14.90;9.70;;;4.10;99.90;;;;;;5063168;28;20242;-83
2021/01/31 04:20:00;;;;;;;11.02;8.45;;;3.70;99.90;;;;;;5066019;28;20219;-84
2021/01/31 04:22:26;;;;;;;13.10;9.43;;;3.90;99.90;;;;;;5063046;28;20199;-83
2021/01/31 04:24:53;;;;;;;10.75;8.85;;;4.00;99.90;;;;;;5067349;28;20207;-83
2021/01/31 04:27:20;;;;;;;10.27;8.85;;;4.10;99.90;;;;;;5059760;28;20199;-83
2021/01/31 04:29:46;;;;;;;12.40;10.38;;;4.10;99.90;;;;;;5069718;28;20678;-84
2021/01/31 04:32:14;;;;;;;13.27;9.65;;;4.10;99.90;;;;;;5055068;28;20742;-83
2021/01/31 04:34:41;;;;;;;11.73;9.18;;;4.10;99.90;;;;;;5051895;28;20206;-83
2021/01/31 04:37:09;;;;;;;12.80;10.80;;;4.20;99.90;;;;;;5068965;28;20210;-83
2021/01/31 04:39:39;;;;;;;13.15;10.02;;;4.20;99.90;;;;;;5068136;28;20287;-84
2021/01/31 04:42:08;;;;;;;14.20;10.93;;;4.20;99.90;;;;;;5058731;28;20196;-84
2021/01/31 04:44:36;;;;;;;12.15;9.75;;;4.20;99.90;;;;;;5070253;28;20195;-84
2021/01/31 04:47:07;;;;;;;17.25;11.30;;;4.20;99.90;;;;;;5065608;28;20242;-81
2021/01/31 04:49:58;;;;;;;16.83;12.20;;;4.10;99.90;;;;;;5069397;28;20195;-83
2021/01/31 04:52:40;;;;;;;14.77;11.82;;;4.30;99.90;;;;;;5049985;28;20681;-84
2021/01/31 04:55:27;;;;;;;16.48;12.10;;;4.30;99.90;;;;;;5063259;28;20195;-84
2021/01/31 04:58:05;;;;;;;12.80;9.60;;;4.30;99.90;;;;;;5064663;28;20553;-84
2021/01/31 05:00:41;;;;;;;13.20;9.95;;;4.20;99.90;;;;;;5050206;28;20188;-83
2021/01/31 05:03:09;;;;;;;14.75;10.70;;;4.20;99.90;;;;;;5055841;28;20207;-83
2021/01/31 05:05:46;;;;;;;15.13;10.80;;;4.20;99.90;;;;;;5052774;28;20245;-83
2021/01/31 05:08:22;;;;;;;15.20;11.30;;;4.20;99.90;;;;;;5052774;28;20191;-84
2021/01/31 05:10:52;;;;;;;14.75;11.95;;;4.10;99.90;;;;;;5065124;28;20206;-84
2021/01/31 05:13:32;;;;;;;16.77;12.52;;;4.00;99.90;;;;;;5063476;28;20641;-84
2021/01/31 05:16:05;;;;;;;12.77;10.57;;;4.10;99.90;;;;;;5052208;28;20250;-85
2021/01/31 05:18:38;;;;;;;13.15;10.50;;;4.10;99.90;;;;;;5058289;28;20274;-84
2021/01/31 05:21:09;;;;;;;12.38;9.80;;;3.90;99.90;;;;;;5057517;28;20194;-84
2021/01/31 05:23:41;;;;;;;14.00;10.90;;;4.00;99.90;;;;;;5068915;28;20196;-85
2021/01/31 05:26:11;;;;;;;16.33;11.40;;;4.10;99.90;;;;;;5067140;28;20312;-84
2021/01/31 05:28:44;;;;;;;16.45;10.57;;;4.10;99.90;;;;;;5068484;28;20223;-84
2021/01/31 05:31:14;;;;;;;14.43;11.15;;;4.10;99.90;;;;;;5062327;28;20188;-84
2021/01/31 05:33:53;;;;;;;14.82;11.23;;;4.00;99.90;;;;;;5057357;28;20239;-84
2021/01/31 05:36:23;;;;;;;16.08;11.77;;;4.20;99.90;;;;;;5053401;28;20200;-84
2021/01/31 05:38:52;;;;;;;13.85;11.35;;;4.10;99.90;;;;;;5070159;28;20253;-84
2021/01/31 05:41:42;;;;;;;12.20;9.63;;;4.30;99.90;;;;;;5071850;28;20237;-83
2021/01/31 05:44:21;;;;;;;16.35;11.35;;;4.20;99.90;;;;;;5053973;28;20207;-84
2021/01/31 05:46:52;;;;;;;13.10;10.45;;;4.10;99.90;;;;;;5067831;28;20199;-84
2021/01/31 05:49:41;;;;;;;17.30;10.70;;;4.10;99.90;;;;;;5072531;28;20282;-84
2021/01/31 05:52:33;;;;;;;15.85;11.38;;;4.10;99.90;;;;;;5071119;28;20294;-83
2021/01/31 05:55:02;;;;;;;13.40;11.45;;;4.20;99.90;;;;;;5058675;28;20212;-84
2021/01/31 05:57:31;;;;;;;15.38;11.85;;;4.20;99.90;;;;;;5059036;28;20268;-84
2021/01/31 06:00:00;;;;;;;16.58;11.15;;;4.30;99.90;;;;;;5068571;28;20211;-84
2021/01/31 06:02:29;;;;;;;15.95;12.30;;;4.20;99.90;;;;;;5052677;28;20200;-84
2021/01/31 06:05:10;;;;;;;15.25;11.27;;;4.20;99.90;;;;;;5071082;28;20573;-84
2021/01/31 06:07:40;;;;;;;14.23;10.85;;;4.30;99.90;;;;;;5054364;28;20196;-83
2021/01/31 06:10:15;;;;;;;16.00;11.45;;;4.20;99.90;;;;;;5052684;28;20211;-84
2021/01/31 06:12:43;;;;;;;13.77;10.30;;;4.20;99.90;;;;;;5053369;28;20242;-84
2021/01/31 06:15:17;;;;;;;16.08;11.77;;;4.10;99.90;;;;;;5065727;28;20245;-84
2021/01/31 06:17:55;;;;;;;14.82;10.60;;;4.10;99.90;;;;;;5053928;28;20681;-83
2021/01/31 06:20:30;;;;;;;13.93;10.05;;;4.20;99.90;;;;;;5065766;28;20211;-84
2021/01/31 06:22:57;;;;;;;15.05;10.38;;;4.20;99.90;;;;;;5066657;28;20195;-84
2021/01/31 06:25:38;;;;;;;12.00;10.13;;;4.10;99.90;;;;;;5060941;28;20199;-83
2021/01/31 06:28:22;;;;;;;18.58;12.10;;;4.20;99.90;;;;;;5051168;28;20657;-83
2021/01/31 06:30:57;;;;;;;14.75;11.15;;;4.20;99.90;;;;;;5059643;28;20208;-84
2021/01/31 06:33:24;;;;;;;14.30;10.52;;;4.20;99.90;;;;;;5063712;28;20213;-84
2021/01/31 06:36:03;;;;;;;18.20;11.88;;;4.20;99.90;;;;;;5063057;28;20235;-84
2021/01/31 06:38:37;;;;;;;17.45;11.25;;;3.80;99.90;;;;;;5053794;28;20215;-85
2021/01/31 06:41:18;;;;;;;17.60;11.15;;;3.90;99.90;;;;;;5060059;28;20270;-84
2021/01/31 06:43:58;;;;;;;17.17;11.23;;;3.90;99.90;;;;;;5056594;28;20195;-83
2021/01/31 06:46:32;;;;;;;14.85;10.63;;;4.00;99.90;;;;;;5069822;28;20847;-84
2021/01/31 06:49:07;;;;;;;15.55;10.82;;;3.80;99.90;;;;;;5051254;28;20192;-84
2021/01/31 06:52:03;;;;;;;12.05;10.07;;;3.90;99.90;;;;;;5063951;28;20222;-84
2021/01/31 06:54:57;;;;;;;14.75;11.05;;;4.00;99.90;;;;;;5071804;28;20211;-84
2021/01/31 06:58:12;;;;;;;17.67;11.10;;;4.10;99.90;;;;;;5053271;28;20196;-84
2021/01/31 07:01:02;;;;;;;14.93;11.25;;;4.20;99.90;;;;;;5064867;28;20562;-84
2021/01/31 07:03:57;;;;;;;17.27;12.60;;;4.20;99.90;;;;;;5055808;28;20894;-84
2021/01/31 07:06:45;;;;;;;15.98;10.20;;;4.20;99.90;;;;;;5062473;28;20249;-84
2021/01/31 07:09:36;;;;;;;16.10;11.10;;;4.20;99.90;;;;;;5071497;28;20281;-84
2021/01/31 07:12:08;;;;;;;14.05;10.43;;;4.20;99.90;;;;;;5069828;28;20703;-85
2021/01/31 07:14:43;;;;;;;14.45;9.80;;;4.30;99.90;;;;;;5065739;28;20226;-85
2021/01/31 07:17:23;;;;;;;15.85;11.50;;;4.20;99.90;;;;;;5057696;28;20211;-84
2021/01/31 07:19:55;;;;;;;13.77;11.13;;;4.30;99.90;;;;;;5067670;28;20281;-84
2021/01/31 07:22:31;;;;;;;14.27;10.93;;;4.00;99.90;;;;;;5062632;28;20227;-85
2021/01/31 07:25:02;;;;;;;14.02;10.25;;;4.10;99.90;;;;;;5055686;28;20275;-85
2021/01/31 07:27:37;;;;;;;14.50;11.10;;;4.20;99.90;;;;;;5062562;28;20280;-85
2021/01/31 07:30:12;;;;;;;15.65;12.35;;;4.20;99.90;;;;;;5060375;28;20199;-84
2021/01/31 07:32:52;;;;;;;16.10;10.30;;;3.90;99.90;;;;;;5059682;28;20653;-85
2021/01/31 07:35:24;;;;;;;14.63;11.80;;;3.60;99.90;;;;;;5054962;28;20936;-86
2021/01/31 07:37:59;;;;;;;14.27;10.75;;;3.70;99.90;;;;;;5059541;28;20235;-85
2021/01/31 07:40:26;;;;;;;14.80;12.25;;;3.90;99.90;;;;;;5057034;28;20200;-85
2021/01/31 07:42:55;;;;;;;14.57;10.55;;;4.10;99.90;;;;;;5064006;28;20195;-85
2021/01/31 07:45:25;;;;;;;17.15;12.40;;;4.10;99.90;;;;;;5065037;28;20195;-85
2021/01/31 07:48:30;;;;;;;15.70;11.15;;;4.20;99.90;;;;;;5049389;28;20680;-84
2021/01/31 07:50:58;;;;;;;14.50;11.48;;;4.20;99.90;;;;;;5049691;28;20370;-84
2021/01/31 07:53:29;;;;;;;15.25;11.10;;;4.20;99.90;;;;;;5049630;28;20274;-85
2021/01/31 07:55:56;;;;;;;14.82;11.05;;;4.20;99.90;;;;;;5048998;28;20204;-85
2021/01/31 07:58:44;;;;;;;13.38;10.13;;;4.30;99.90;;;;;;5050399;28;20216;-85
2021/01/31 08:01:35;;;;;;;14.45;10.63;;;4.40;99.90;;;;;;5062168;28;20210;-85
2021/01/31 08:04:27;;;;;;;14.15;10.90;;;4.40;99.90;;;;;;5069502;28;20223;-85
2021/01/31 08:06:57;;;;;;;13.20;10.02;;;4.30;99.90;;;;;;5055679;28;20196;-84
2021/01/31 08:09:55;;;;;;;13.27;11.25;;;4.30;99.90;;;;;;5049513;28;20215;-83
2021/01/31 08:12:58;;;;;;;13.43;10.75;;;4.40;99.90;;;;;;5049029;28;20199;-84
2021/01/31 08:15:39;;;;;;;12.43;9.95;;;4.50;99.90;;;;;;5049195;28;20199;-84
2021/01/31 08:18:16;;;;;;;12.60;9.10;;;4.50;99.90;;;;;;5048730;28;20215;-84
2021/01/31 08:20:52;;;;;;;10.77;9.40;;;4.40;99.90;;;;;;5054039;28;20337;-84
2021/01/31 08:23:45;;;;;;;14.40;10.45;;;4.40;99.90;;;;;;5066451;28;20644;-84
2021/01/31 08:26:32;;;;;;;10.38;8.07;;;4.40;99.90;;;;;;5057442;28;20200;-85
2021/01/31 08:28:58;;;;;;;10.63;8.75;;;4.40;99.90;;;;;;5053863;28;20203;-85
2021/01/31 08:31:25;;;;;;;11.57;9.20;;;4.50;99.90;;;;;;5065449;28;20534;-84
2021/01/31 08:34:02;;;;;;;13.60;10.18;;;4.60;99.90;;;;;;5062129;28;20250;-85
2021/01/31 08:36:33;;;;;;;12.77;9.35;;;4.60;99.90;;;;;;5064770;28;20207;-84
2021/01/31 08:39:00;;;;;;;15.50;10.07;;;4.60;99.90;;;;;;5052338;28;20215;-85
2021/01/31 08:41:40;;;;;;;11.73;8.95;;;4.60;99.90;;;;;;5055879;28;20600;-85
2021/01/31 08:44:39;;;;;;;11.57;9.05;;;4.60;99.90;;;;;;5060880;28;20195;-84
2021/01/31 08:47:06;;;;;;;10.82;8.77;;;4.70;99.90;;;;;;5072303;28;20192;-84
2021/01/31 08:49:32;;;;;;;11.65;10.07;;;4.70;99.90;;;;;;5073431;28;20207;-84
2021/01/31 08:52:00;;;;;;;11.70;9.82;;;4.70;99.90;;;;;;5057827;28;20763;-85
2021/01/31 08:54:28;;;;;;;9.88;8.88;;;4.80;99.90;;;;;;5064156;28;20207;-84
2021/01/31 08:56:56;;;;;;;9.80;7.90;;;4.70;99.90;;;;;;5056032;28;20236;-83
2021/01/31 08:59:27;;;;;;;11.13;8.13;;;4.90;99.90;;;;;;5057516;28;20574;-84
2021/01/31 09:02:02;;;;;;;10.43;8.00;;;4.90;99.80;;;;;;5054040;28;20250;-84
2021/01/31 09:04:30;;;;;;;10.77;8.73;;;4.90;99.50;;;;;;5066610;28;20215;-84
2021/01/31 09:07:02;;;;;;;8.80;7.25;;;5.00;99.60;;;;;;5067449;28;20570;-83
2021/01/31 09:09:31;;;;;;;9.60;8.27;;;5.00;99.30;;;;;;5060111;28;20232;-84
2021/01/31 09:12:00;;;;;;;9.45;7.95;;;5.10;99.30;;;;;;5071166;28;20239;-84
2021/01/31 09:14:28;;;;;;;8.48;7.65;;;5.20;99.30;;;;;;5060903;28;20615;-84
2021/01/31 09:17:02;;;;;;;9.60;8.27;;;5.20;99.10;;;;;;5068571;28;20230;-84
2021/01/31 09:19:28;;;;;;;12.60;9.75;;;5.20;99.00;;;;;;5059456;28;20208;-84
2021/01/31 09:22:00;;;;;;;9.73;7.82;;;5.20;99.00;;;;;;5057916;28;20215;-84
2021/01/31 09:24:29;;;;;;;10.40;9.10;;;5.30;98.90;;;;;;5058489;28;20543;-84
2021/01/31 09:26:57;;;;;;;10.48;9.38;;;5.40;98.70;;;;;;5069029;28;20264;-84
2021/01/31 09:29:26;;;;;;;10.00;8.55;;;5.30;98.40;;;;;;5055879;28;20680;-84
2021/01/31 09:31:56;;;;;;;11.48;8.85;;;5.20;98.40;;;;;;5060821;28;20224;-84
2021/01/31 09:34:25;;;;;;;9.80;8.00;;;5.20;98.80;;;;;;5062428;28;20204;-85
2021/01/31 09:37:05;;;;;;;11.05;9.25;;;5.20;98.70;;;;;;5061912;28;20222;-84
2021/01/31 09:39:34;;;;;;;9.35;8.43;;;5.20;98.60;;;;;;5069493;28;20254;-85
2021/01/31 09:42:03;;;;;;;9.93;8.35;;;5.20;98.60;;;;;;5072406;28;20213;-84
2021/01/31 09:44:32;;;;;;;11.32;8.38;;;5.30;98.70;;;;;;5062475;28;20203;-84
2021/01/31 09:46:59;;;;;;;10.57;9.00;;;5.10;98.80;;;;;;5068626;28;20218;-83
2021/01/31 09:49:28;;;;;;;11.30;9.45;;;5.20;98.80;;;;;;5063071;28;20204;-84
2021/01/31 09:52:04;;;;;;;10.95;9.10;;;5.30;98.80;;;;;;5068198;28;20234;-83
2021/01/31 09:54:32;;;;;;;10.10;8.95;;;5.40;98.40;;;;;;5070991;28;20207;-84
2021/01/31 09:57:01;;;;;;;11.00;9.73;;;5.40;98.50;;;;;;5053246;28;20211;-82
2021/01/31 09:59:31;;;;;;;12.13;9.35;;;5.40;98.60;;;;;;5058487;28;20223;-84
2021/01/31 10:02:08;;;;;;;11.63;9.23;;;5.40;98.50;;;;;;5053076;28;20204;-84
2021/01/31 10:04:36;;;;;;;12.15;8.98;;;5.40;98.80;;;;;;5065513;28;20216;-84
2021/01/31 10:07:08;;;;;;;11.82;9.13;;;5.50;98.70;;;;;;5070754;28;20210;-83
2021/01/31 10:09:38;;;;;;;12.02;9.43;;;5.60;98.40;;;;;;5072098;28;20203;-82
2021/01/31 10:12:15;;;;;;;12.50;9.00;;;5.60;98.20;;;;;;5053179;28;20722;-83
2021/01/31 10:14:45;;;;;;;11.50;10.00;;;5.50;98.20;;;;;;5072567;28;20199;-84
2021/01/31 10:17:13;;;;;;;11.75;9.23;;;5.50;98.30;;;;;;5070935;28;20230;-84
2021/01/31 10:19:40;;;;;;;12.55;10.30;;;5.60;98.30;;;;;;5070961;28;20817;-84
2021/01/31 10:22:14;;;;;;;12.10;9.80;;;5.50;97.90;;;;;;5062035;28;20199;-84
2021/01/31 10:24:47;;;;;;;11.15;9.18;;;5.50;98.20;;;;;;5057177;28;20278;-84
2021/01/31 10:27:24;;;;;;;10.57;9.50;;;5.50;98.00;;;;;;5051586;28;20215;-83
2021/01/31 10:29:53;;;;;;;15.68;11.35;;;5.80;98.20;;;;;;5052862;28;20206;-84
2021/01/31 10:32:25;;;;;;;12.45;10.52;;;5.80;97.80;;;;;;5072042;28;20567;-84
2021/01/31 10:34:54;;;;;;;12.48;9.98;;;5.90;97.90;;;;;;5070822;28;20851;-84
2021/01/31 10:37:31;;;;;;;17.85;10.60;;;5.70;97.50;;;;;;5071218;28;20715;-83
2021/01/31 10:39:58;;;;;;;12.00;10.70;;;5.80;97.50;;;;;;5060475;28;20219;-84
2021/01/31 10:42:24;;;;;;;11.25;10.10;;;5.80;97.70;;;;;;5051501;28;20207;-84
2021/01/31 10:44:51;;;;;;;12.85;11.18;;;5.70;97.30;;;;;;5065832;28;20616;-83
2021/01/31 10:47:18;;;;;;;14.05;10.50;;;5.80;97.60;;;;;;5070976;28;20190;-84
2021/01/31 10:49:44;;;;;;;16.25;11.30;;;5.90;97.50;;;;;;5071918;28;20200;-84
2021/01/31 10:52:12;;;;;;;13.45;9.82;;;5.90;97.40;;;;;;5051640;28;20208;-84
2021/01/31 10:54:38;;;;;;;11.93;10.65;;;6.00;97.40;;;;;;5051881;28;20719;-84
2021/01/31 10:57:05;;;;;;;11.82;9.63;;;6.00;97.40;;;;;;5051114;28;20257;-83
2021/01/31 10:59:31;;;;;;;13.75;10.30;;;6.00;97.40;;;;;;5052218;28;20219;-84
2021/01/31 11:01:58;;;;;;;14.02;10.40;;;6.10;97.20;;;;;;5068966;28;20606;-84
2021/01/31 11:04:25;;;;;;;14.70;11.23;;;6.00;96.90;;;;;;5064706;28;20583;-84
2021/01/31 11:06:51;;;;;;;13.70;10.60;;;5.90;97.00;;;;;;5068023;28;20210;-83
2021/01/31 11:09:18;;;;;;;12.82;10.68;;;5.90;97.20;;;;;;5069909;28;20199;-83
2021/01/31 11:11:45;;;;;;;12.60;10.63;;;5.90;97.40;;;;;;5053553;28;20222;-84
2021/01/31 11:14:12;;;;;;;13.80;10.80;;;6.00;97.50;;;;;;5064308;28;20249;-84
2021/01/31 11:16:38;;;;;;;11.60;9.95;;;6.00;97.20;;;;;;5056693;28;20250;-84
2021/01/31 11:19:06;;;;;;;12.77;10.40;;;6.00;97.10;;;;;;5052315;28;20222;-85
2021/01/31 11:21:32;;;;;;;12.88;9.82;;;5.90;97.20;;;;;;5062501;28;20281;-84
2021/01/31 11:23:59;;;;;;;17.75;11.40;;;5.90;97.70;;;;;;5052036;28;20216;-84
2021/01/31 11:26:26;;;;;;;12.20;10.07;;;6.00;97.70;;;;;;5067824;28;20907;-84
2021/01/31 11:28:53;;;;;;;14.25;10.10;;;6.20;97.50;;;;;;5069151;28;20664;-84
2021/01/31 11:31:21;;;;;;;13.65;11.77;;;6.30;97.00;;;;;;5056395;28;20605;-84
2021/01/31 11:33:50;;;;;;;12.60;10.27;;;6.50;96.80;;;;;;5070579;28;20329;-84
2021/01/31 11:36:19;;;;;;;12.10;8.70;;;6.60;96.30;;;;;;5061811;28;20195;-84
2021/01/31 11:38:46;;;;;;;12.20;10.30;;;6.70;96.20;;;;;;5067349;28;20211;-84
2021/01/31 11:41:12;;;;;;;12.23;10.20;;;6.80;96.20;;;;;;5066491;28;20195;-84
2021/01/31 11:43:39;;;;;;;12.10;9.65;;;6.90;96.10;;;;;;5071002;28;20269;-84
2021/01/31 11:46:05;;;;;;;11.75;9.35;;;6.90;96.00;;;;;;5069349;28;20206;-84
2021/01/31 11:48:31;;;;;;;11.43;9.18;;;7.00;95.90;;;;;;5056707;28;20199;-84
2021/01/31 11:50:58;;;;;;;11.02;9.88;;;7.00;95.60;;;;;;5065049;28;20684;-84
2021/01/31 11:53:25;;;;;;;11.57;9.25;;;7.00;95.60;;;;;;5059413;28;20257;-83
2021/01/31 11:55:52;;;;;;;11.75;9.57;;;7.10;95.70;;;;;;5057706;28;20235;-83
2021/01/31 11:58:19;;;;;;;11.68;10.45;;;7.00;95.80;;;;;;5054964;28;20216;-85
2021/01/31 12:00:45;;;;;;;12.40;9.80;;;7.10;95.70;;;;;;5054918;28;20196;-84
2021/01/31 12:03:12;;;;;;;12.70;10.50;;;7.10;95.30;;;;;;5052993;28;20687;-84
2021/01/31 12:05:39;;;;;;;12.32;10.32;;;7.00;95.40;;;;;;5064991;28;20210;-85
2021/01/31 12:08:06;;;;;;;11.35;9.45;;;7.10;95.90;;;;;;5062997;28;20192;-85
2021/01/31 12:10:34;;;;;;;11.32;9.65;;;7.10;95.80;;;;;;5054063;28;20211;-84
2021/01/31 12:13:00;;;;;;;10.32;8.65;;;7.10;95.60;;;;;;5068438;28;20684;-84
2021/01/31 12:15:27;;;;;;;11.95;10.10;;;7.20;95.30;;;;;;5076602;28;20202;-84
2021/01/31 12:17:53;;;;;;;12.55;10.25;;;7.10;95.10;;;;;;5075950;28;20285;-84
2021/01/31 12:20:20;;;;;;;12.27;9.90;;;7.10;95.20;;;;;;5067961;28;20555;-84
2021/01/31 12:22:47;;;;;;;12.55;10.45;;;6.90;95.60;;;;;;5072046;28;20264;-84
2021/01/31 12:25:15;;;;;;;12.30;10.57;;;6.80;95.90;;;;;;5057861;28;20210;-84
2021/01/31 12:27:45;;;;;;;11.35;9.57;;;6.70;95.70;;;;;;5056392;28;20257;-84
2021/01/31 12:30:12;;;;;;;11.23;9.95;;;6.70;95.90;;;;;;5072237;28;20198;-84
2021/01/31 12:32:39;;;;;;;14.73;10.43;;;6.60;96.00;;;;;;5056562;28;20195;-84
2021/01/31 12:35:06;;;;;;;11.82;8.98;;;6.60;96.00;;;;;;5067937;28;20221;-84
2021/01/31 12:37:32;;;;;;;11.15;10.00;;;6.70;96.00;;;;;;5062235;28;20203;-84
2021/01/31 12:39:59;;;;;;;14.10;10.13;;;6.70;95.70;;;;;;5075256;28;20585;-84
2021/01/31 12:42:26;;;;;;;14.65;11.02;;;6.60;95.80;;;;;;5076777;28;20731;-84
2021/01/31 12:44:53;;;;;;;10.75;9.02;;;6.70;95.80;;;;;;5069247;28;20207;-84
2021/01/31 12:47:20;;;;;;;14.93;10.38;;;6.60;96.10;;;;;;5075938;28;20207;-82
2021/01/31 12:49:46;;;;;;;16.45;10.00;;;6.70;96.00;;;;;;5063526;28;20227;-83
2021/01/31 12:52:13;;;;;;;12.20;9.95;;;6.50;95.90;;;;;;5073216;28;20207;-84
2021/01/31 12:54:40;;;;;;;10.52;9.25;;;6.50;96.00;;;;;;5064489;28;20246;-84
2021/01/31 12:57:07;;;;;;;10.43;9.10;;;6.40;96.00;;;;;;5060594;28;20195;-83
2021/01/31 12:59:33;;;;;;;11.90;9.65;;;6.50;96.10;;;;;;5067326;28;20580;-84
2021/01/31 13:02:01;;;;;;;12.20;10.20;;;6.50;96.20;;;;;;5075326;28;20209;-84
2021/01/31 13:04:27;;;;;;;11.40;9.35;;;6.40;96.30;;;;;;5072289;28;20199;-83
2021/01/31 13:06:54;;;;;;;12.18;10.15;;;6.40;96.30;;;;;;5058206;28;20669;-84
2021/01/31 13:09:20;;;;;;;12.57;10.18;;;6.30;96.30;;;;;;5075328;28;20558;-84
2021/01/31 13:11:47;;;;;;;13.05;9.73;;;6.30;96.20;;;;;;5059475;28;20196;-83